sensor_id;sensor_type;location;lat;lon;timestamp;temperature;humidity
21487;DHT22;10905;50.822;4.336;2022-12-11T00:02:27;3.20;99.90
21487;DHT22;10905;50.822;4.336;2022-12-11T00:04:53;3.20;99.90
21487;DHT22;10905;50.822;4.336;2022-12-11T00:07:19;3.30;99.90
21487;DHT22;10905;50.822;4.336;2022-12-11T00:09:44;3.40;99.90
21487;DHT22;10905;50.822;4.336;2022-12-11T00:12:10;3.60;99.90
21487;DHT22;10905;50.822;4.336;2022-12-11T00:14:35;3.50;99.90
21487;DHT22;10905;50.822;4.336;2022-12-11T00:17:01;3.50;99.90
21487;DHT22;10905;50.822;4.336;2022-12-11T00:19:27;3.50;99.90
21487;DHT22;10905;50.822;4.336;2022-12-11T00:21:52;3.50;99.90
21487;DHT22;10905;50.822;4.336;2022-12-11T00:24:18;3.40;99.90
21487;DHT22;10905;50.822;4.336;2022-12-11T00:26:44;3.40;99.90
21487;DHT22;10905;50.822;4.336;2022-12-11T00:29:10;3.30;99.90
21487;DHT22;10905;50.822;4.336;2022-12-11T00:31:39;3.30;99.90
21487;DHT22;10905;50.822;4.336;2022-12-11T00:34:05;3.30;99.90
21487;DHT22;10905;50.822;4.336;2022-12-11T00:36:31;3.20;99.90
21487;DHT22;10905;50.822;4.336;2022-12-11T00:38:56;3.20;99.90
21487;DHT22;10905;50.822;4.336;2022-12-11T00:41:22;3.20;99.90
21487;DHT22;10905;50.822;4.336;2022-12-11T00:43:47;3.20;99.90
21487;DHT22;10905;50.822;4.336;2022-12-11T00:46:13;3.20;99.90
21487;DHT22;10905;50.822;4.336;2022-12-11T00:48:39;3.30;99.90
21487;DHT22;10905;50.822;4.336;2022-12-11T00:51:05;3.40;99.90
21487;DHT22;10905;50.822;4.336;2022-12-11T00:53:30;3.50;99.90
21487;DHT22;10905;50.822;4.336;2022-12-11T00:55:56;3.40;99.90
21487;DHT22;10905;50.822;4.336;2022-12-11T00:58:22;3.30;99.90
21487;DHT22;10905;50.822;4.336;2022-12-11T01:00:48;3.20;99.90
21487;DHT22;10905;50.822;4.336;2022-12-11T01:03:15;3.20;99.90
21487;DHT22;10905;50.822;4.336;2022-12-11T01:05:41;3.20;99.90
21487;DHT22;10905;50.822;4.336;2022-12-11T01:08:14;3.20;99.90
21487;DHT22;10905;50.822;4.336;2022-12-11T01:10:40;3.20;99.90
21487;DHT22;10905;50.822;4.336;2022-12-11T01:13:06;3.40;99.90
21487;DHT22;10905;50.822;4.336;2022-12-11T01:15:43;3.30;99.90
21487;DHT22;10905;50.822;4.336;2022-12-11T01:18:13;3.30;99.90
21487;DHT22;10905;50.822;4.336;2022-12-11T01:20:41;3.30;99.90
21487;DHT22;10905;50.822;4.336;2022-12-11T01:23:07;3.30;99.90
21487;DHT22;10905;50.822;4.336;2022-12-11T01:25:35;3.30;99.90
21487;DHT22;10905;50.822;4.336;2022-12-11T01:28:03;3.20;99.90
21487;DHT22;10905;50.822;4.336;2022-12-11T01:30:28;3.20;99.90
21487;DHT22;10905;50.822;4.336;2022-12-11T01:32:54;3.30;99.90
21487;DHT22;10905;50.822;4.336;2022-12-11T01:35:20;3.40;99.90
21487;DHT22;10905;50.822;4.336;2022-12-11T01:37:46;3.30;99.90
21487;DHT22;10905;50.822;4.336;2022-12-11T01:40:17;3.30;99.90
21487;DHT22;10905;50.822;4.336;2022-12-11T01:42:42;3.40;99.90
21487;DHT22;10905;50.822;4.336;2022-12-11T01:47:51;3.60;99.90
21487;DHT22;10905;50.822;4.336;2022-12-11T01:50:17;3.60;99.90
21487;DHT22;10905;50.822;4.336;2022-12-11T01:52:46;3.50;99.90
21487;DHT22;10905;50.822;4.336;2022-12-11T01:55:13;3.40;99.90
21487;DHT22;10905;50.822;4.336;2022-12-11T01:57:43;3.40;99.90
21487;DHT22;10905;50.822;4.336;2022-12-11T02:00:10;3.40;99.90
21487;DHT22;10905;50.822;4.336;2022-12-11T02:02:36;3.40;99.90
21487;DHT22;10905;50.822;4.336;2022-12-11T02:05:03;3.60;99.90
21487;DHT22;10905;50.822;4.336;2022-12-11T02:07:34;3.50;99.90
21487;DHT22;10905;50.822;4.336;2022-12-11T02:10:01;3.40;99.90
21487;DHT22;10905;50.822;4.336;2022-12-11T02:29:48;3.50;99.90
21487;DHT22;10905;50.822;4.336;2022-12-11T02:32:25;3.50;99.90
21487;DHT22;10905;50.822;4.336;2022-12-11T02:37:41;3.50;99.90
21487;DHT22;10905;50.822;4.336;2022-12-11T02:40:10;3.50;99.90
21487;DHT22;10905;50.822;4.336;2022-12-11T02:42:39;3.50;99.90
21487;DHT22;10905;50.822;4.336;2022-12-11T02:45:08;3.40;99.90
21487;DHT22;10905;50.822;4.336;2022-12-11T02:47:35;3.30;99.90
21487;DHT22;10905;50.822;4.336;2022-12-11T02:50:06;3.40;99.90
21487;DHT22;10905;50.822;4.336;2022-12-11T02:52:35;3.40;99.90
21487;DHT22;10905;50.822;4.336;2022-12-11T02:55:02;3.30;99.90
21487;DHT22;10905;50.822;4.336;2022-12-11T03:00:04;3.50;99.90
21487;DHT22;10905;50.822;4.336;2022-12-11T03:02:30;3.50;99.90
21487;DHT22;10905;50.822;4.336;2022-12-11T03:04:56;3.40;99.90
21487;DHT22;10905;50.822;4.336;2022-12-11T03:07:25;3.40;99.90
21487;DHT22;10905;50.822;4.336;2022-12-11T03:09:51;3.40;99.90
21487;DHT22;10905;50.822;4.336;2022-12-11T03:12:27;3.40;99.90
21487;DHT22;10905;50.822;4.336;2022-12-11T03:14:53;3.40;99.90
21487;DHT22;10905;50.822;4.336;2022-12-11T03:17:21;3.40;99.90
21487;DHT22;10905;50.822;4.336;2022-12-11T03:19:59;3.50;99.90
21487;DHT22;10905;50.822;4.336;2022-12-11T03:22:38;3.40;99.90
21487;DHT22;10905;50.822;4.336;2022-12-11T03:25:12;3.30;99.90
21487;DHT22;10905;50.822;4.336;2022-12-11T03:30:17;3.30;99.90
21487;DHT22;10905;50.822;4.336;2022-12-11T03:32:55;3.20;99.90
21487;DHT22;10905;50.822;4.336;2022-12-11T03:35:32;3.20;99.90
21487;DHT22;10905;50.822;4.336;2022-12-11T03:38:09;3.10;99.90
21487;DHT22;10905;50.822;4.336;2022-12-11T03:40:37;3.20;99.90
21487;DHT22;10905;50.822;4.336;2022-12-11T03:43:05;3.10;99.90
21487;DHT22;10905;50.822;4.336;2022-12-11T03:45:31;3.20;99.90
21487;DHT22;10905;50.822;4.336;2022-12-11T03:47:59;3.30;99.90
21487;DHT22;10905;50.822;4.336;2022-12-11T03:50:28;3.30;99.90
21487;DHT22;10905;50.822;4.336;2022-12-11T03:52:56;3.20;99.90
21487;DHT22;10905;50.822;4.336;2022-12-11T03:55:24;3.10;99.90
21487;DHT22;10905;50.822;4.336;2022-12-11T03:57:50;3.20;99.90
21487;DHT22;10905;50.822;4.336;2022-12-11T04:00:19;3.20;99.90
21487;DHT22;10905;50.822;4.336;2022-12-11T04:02:45;3.20;99.90
21487;DHT22;10905;50.822;4.336;2022-12-11T04:05:30;3.00;99.90
21487;DHT22;10905;50.822;4.336;2022-12-11T04:07:56;3.10;99.90
21487;DHT22;10905;50.822;4.336;2022-12-11T04:10:23;3.20;99.90
21487;DHT22;10905;50.822;4.336;2022-12-11T04:12:48;3.20;99.90
21487;DHT22;10905;50.822;4.336;2022-12-11T04:15:14;3.10;99.90
21487;DHT22;10905;50.822;4.336;2022-12-11T04:17:40;3.20;99.90
21487;DHT22;10905;50.822;4.336;2022-12-11T04:20:24;3.10;99.90
21487;DHT22;10905;50.822;4.336;2022-12-11T04:23:21;3.20;99.90
21487;DHT22;10905;50.822;4.336;2022-12-11T04:26:16;3.10;99.90
21487;DHT22;10905;50.822;4.336;2022-12-11T04:28:43;3.20;99.90
21487;DHT22;10905;50.822;4.336;2022-12-11T04:31:14;3.10;99.90
21487;DHT22;10905;50.822;4.336;2022-12-11T04:33:40;3.10;99.90
21487;DHT22;10905;50.822;4.336;2022-12-11T04:36:06;3.10;99.90
21487;DHT22;10905;50.822;4.336;2022-12-11T04:38:32;3.20;99.90
21487;DHT22;10905;50.822;4.336;2022-12-11T04:40:59;3.20;99.90
21487;DHT22;10905;50.822;4.336;2022-12-11T04:43:25;3.20;99.90
21487;DHT22;10905;50.822;4.336;2022-12-11T04:46:09;3.20;99.90
21487;DHT22;10905;50.822;4.336;2022-12-11T04:48:36;3.20;99.90
21487;DHT22;10905;50.822;4.336;2022-12-11T04:51:02;3.20;99.90
21487;DHT22;10905;50.822;4.336;2022-12-11T04:53:28;3.30;99.90
21487;DHT22;10905;50.822;4.336;2022-12-11T04:55:54;3.20;99.90
21487;DHT22;10905;50.822;4.336;2022-12-11T04:58:20;3.30;99.90
21487;DHT22;10905;50.822;4.336;2022-12-11T05:00:45;3.30;99.90
21487;DHT22;10905;50.822;4.336;2022-12-11T05:03:11;3.40;99.90
21487;DHT22;10905;50.822;4.336;2022-12-11T05:05:37;3.20;99.90
21487;DHT22;10905;50.822;4.336;2022-12-11T05:08:03;3.10;99.90
21487;DHT22;10905;50.822;4.336;2022-12-11T05:10:29;3.20;99.90
21487;DHT22;10905;50.822;4.336;2022-12-11T05:12:54;3.30;99.90
21487;DHT22;10905;50.822;4.336;2022-12-11T05:15:20;3.40;99.90
21487;DHT22;10905;50.822;4.336;2022-12-11T05:17:45;3.40;99.90
21487;DHT22;10905;50.822;4.336;2022-12-11T05:20:11;3.30;99.90
21487;DHT22;10905;50.822;4.336;2022-12-11T05:22:37;3.30;99.90
21487;DHT22;10905;50.822;4.336;2022-12-11T05:25:04;3.30;99.90
21487;DHT22;10905;50.822;4.336;2022-12-11T05:27:29;3.30;99.90
21487;DHT22;10905;50.822;4.336;2022-12-11T05:29:55;3.20;99.90
21487;DHT22;10905;50.822;4.336;2022-12-11T05:32:21;3.20;99.90
21487;DHT22;10905;50.822;4.336;2022-12-11T05:34:47;3.30;99.90
21487;DHT22;10905;50.822;4.336;2022-12-11T05:37:14;3.30;99.90
21487;DHT22;10905;50.822;4.336;2022-12-11T05:39:39;3.30;99.90
21487;DHT22;10905;50.822;4.336;2022-12-11T05:42:05;3.10;99.90
21487;DHT22;10905;50.822;4.336;2022-12-11T05:44:31;3.10;99.90
21487;DHT22;10905;50.822;4.336;2022-12-11T05:46:56;3.10;99.90
21487;DHT22;10905;50.822;4.336;2022-12-11T05:49:22;3.10;99.90
21487;DHT22;10905;50.822;4.336;2022-12-11T05:51:47;3.20;99.90
21487;DHT22;10905;50.822;4.336;2022-12-11T05:54:13;3.10;99.90
21487;DHT22;10905;50.822;4.336;2022-12-11T05:56:39;3.10;99.90
21487;DHT22;10905;50.822;4.336;2022-12-11T05:59:05;3.10;99.90
21487;DHT22;10905;50.822;4.336;2022-12-11T06:01:37;3.10;99.90
21487;DHT22;10905;50.822;4.336;2022-12-11T06:04:04;3.20;99.90
21487;DHT22;10905;50.822;4.336;2022-12-11T06:06:30;3.20;99.90
21487;DHT22;10905;50.822;4.336;2022-12-11T06:08:57;3.30;99.90
21487;DHT22;10905;50.822;4.336;2022-12-11T06:11:24;3.20;99.90
21487;DHT22;10905;50.822;4.336;2022-12-11T06:13:51;3.10;99.90
21487;DHT22;10905;50.822;4.336;2022-12-11T06:16:18;3.10;99.90
21487;DHT22;10905;50.822;4.336;2022-12-11T06:18:44;3.20;99.90
21487;DHT22;10905;50.822;4.336;2022-12-11T06:21:22;3.40;99.90
21487;DHT22;10905;50.822;4.336;2022-12-11T06:23:49;3.40;99.90
21487;DHT22;10905;50.822;4.336;2022-12-11T06:26:17;3.30;99.90
21487;DHT22;10905;50.822;4.336;2022-12-11T06:28:43;3.10;99.90
21487;DHT22;10905;50.822;4.336;2022-12-11T06:31:09;3.10;99.90
21487;DHT22;10905;50.822;4.336;2022-12-11T06:33:35;3.00;99.90
21487;DHT22;10905;50.822;4.336;2022-12-11T06:36:06;3.00;99.90
21487;DHT22;10905;50.822;4.336;2022-12-11T06:38:32;3.20;99.90
21487;DHT22;10905;50.822;4.336;2022-12-11T06:40:59;3.30;99.90
21487;DHT22;10905;50.822;4.336;2022-12-11T06:43:25;3.20;99.90
21487;DHT22;10905;50.822;4.336;2022-12-11T06:45:51;3.10;99.90
21487;DHT22;10905;50.822;4.336;2022-12-11T06:48:18;3.00;99.90
21487;DHT22;10905;50.822;4.336;2022-12-11T06:50:44;3.00;99.90
21487;DHT22;10905;50.822;4.336;2022-12-11T06:53:11;3.00;99.90
21487;DHT22;10905;50.822;4.336;2022-12-11T06:55:37;2.90;99.90
21487;DHT22;10905;50.822;4.336;2022-12-11T06:58:03;2.90;99.90
21487;DHT22;10905;50.822;4.336;2022-12-11T07:00:29;3.00;99.90
21487;DHT22;10905;50.822;4.336;2022-12-11T07:02:55;2.90;99.90
21487;DHT22;10905;50.822;4.336;2022-12-11T07:05:20;3.00;99.90
21487;DHT22;10905;50.822;4.336;2022-12-11T07:07:46;3.00;99.90
21487;DHT22;10905;50.822;4.336;2022-12-11T07:10:12;3.00;99.90
21487;DHT22;10905;50.822;4.336;2022-12-11T07:12:37;3.00;99.90
21487;DHT22;10905;50.822;4.336;2022-12-11T07:15:04;3.00;99.90
21487;DHT22;10905;50.822;4.336;2022-12-11T07:17:30;2.90;99.90
21487;DHT22;10905;50.822;4.336;2022-12-11T07:19:56;2.90;99.90
21487;DHT22;10905;50.822;4.336;2022-12-11T07:22:21;3.00;99.90
21487;DHT22;10905;50.822;4.336;2022-12-11T07:24:47;3.10;99.90
21487;DHT22;10905;50.822;4.336;2022-12-11T07:27:13;2.80;99.90
21487;DHT22;10905;50.822;4.336;2022-12-11T07:29:38;2.80;99.90
21487;DHT22;10905;50.822;4.336;2022-12-11T07:32:04;2.90;99.90
21487;DHT22;10905;50.822;4.336;2022-12-11T07:34:30;2.90;99.90
21487;DHT22;10905;50.822;4.336;2022-12-11T07:36:55;2.90;99.90
21487;DHT22;10905;50.822;4.336;2022-12-11T07:39:21;2.90;99.90
21487;DHT22;10905;50.822;4.336;2022-12-11T07:41:47;2.90;99.90
21487;DHT22;10905;50.822;4.336;2022-12-11T07:44:13;2.90;99.90
21487;DHT22;10905;50.822;4.336;2022-12-11T07:46:39;2.90;99.90
21487;DHT22;10905;50.822;4.336;2022-12-11T07:49:05;2.90;99.90
21487;DHT22;10905;50.822;4.336;2022-12-11T07:51:33;2.90;99.90
21487;DHT22;10905;50.822;4.336;2022-12-11T07:54:12;2.90;99.90
21487;DHT22;10905;50.822;4.336;2022-12-11T07:56:44;2.90;99.90
21487;DHT22;10905;50.822;4.336;2022-12-11T07:59:10;2.90;99.90
21487;DHT22;10905;50.822;4.336;2022-12-11T08:01:36;2.90;99.90
21487;DHT22;10905;50.822;4.336;2022-12-11T08:04:04;3.00;99.90
21487;DHT22;10905;50.822;4.336;2022-12-11T08:06:32;3.00;99.90
21487;DHT22;10905;50.822;4.336;2022-12-11T08:09:00;3.10;99.90
21487;DHT22;10905;50.822;4.336;2022-12-11T08:11:26;3.00;99.90
21487;DHT22;10905;50.822;4.336;2022-12-11T08:13:53;3.10;99.90
21487;DHT22;10905;50.822;4.336;2022-12-11T08:16:19;3.20;99.90
21487;DHT22;10905;50.822;4.336;2022-12-11T08:18:46;3.30;99.90
21487;DHT22;10905;50.822;4.336;2022-12-11T08:21:15;3.20;99.90
21487;DHT22;10905;50.822;4.336;2022-12-11T08:23:41;3.20;99.90
21487;DHT22;10905;50.822;4.336;2022-12-11T08:26:11;3.10;99.90
21487;DHT22;10905;50.822;4.336;2022-12-11T08:28:37;3.10;99.90
21487;DHT22;10905;50.822;4.336;2022-12-11T08:31:05;3.10;99.90
21487;DHT22;10905;50.822;4.336;2022-12-11T08:33:31;3.00;99.90
21487;DHT22;10905;50.822;4.336;2022-12-11T08:35:56;3.00;99.90
21487;DHT22;10905;50.822;4.336;2022-12-11T08:38:23;3.00;99.90
21487;DHT22;10905;50.822;4.336;2022-12-11T08:40:48;3.00;99.90
21487;DHT22;10905;50.822;4.336;2022-12-11T08:43:14;3.00;99.90
21487;DHT22;10905;50.822;4.336;2022-12-11T08:45:40;3.00;99.90
21487;DHT22;10905;50.822;4.336;2022-12-11T08:48:05;3.10;99.90
21487;DHT22;10905;50.822;4.336;2022-12-11T08:50:31;3.00;99.90
21487;DHT22;10905;50.822;4.336;2022-12-11T08:52:57;3.00;99.90
21487;DHT22;10905;50.822;4.336;2022-12-11T08:55:23;3.10;99.90
21487;DHT22;10905;50.822;4.336;2022-12-11T08:57:48;3.10;99.90
21487;DHT22;10905;50.822;4.336;2022-12-11T09:00:16;3.10;99.90
21487;DHT22;10905;50.822;4.336;2022-12-11T09:02:43;3.00;99.90
21487;DHT22;10905;50.822;4.336;2022-12-11T09:05:08;3.10;99.90
21487;DHT22;10905;50.822;4.336;2022-12-11T09:07:35;3.10;99.90
21487;DHT22;10905;50.822;4.336;2022-12-11T09:10:03;3.20;99.90
21487;DHT22;10905;50.822;4.336;2022-12-11T09:12:29;3.20;99.90
21487;DHT22;10905;50.822;4.336;2022-12-11T09:14:54;3.20;99.90
21487;DHT22;10905;50.822;4.336;2022-12-11T09:17:20;3.20;99.90
21487;DHT22;10905;50.822;4.336;2022-12-11T09:19:45;3.30;99.90
21487;DHT22;10905;50.822;4.336;2022-12-11T09:22:11;3.40;99.90
21487;DHT22;10905;50.822;4.336;2022-12-11T09:24:38;3.40;99.90
21487;DHT22;10905;50.822;4.336;2022-12-11T09:27:05;3.40;99.90
21487;DHT22;10905;50.822;4.336;2022-12-11T09:29:31;3.60;99.90
21487;DHT22;10905;50.822;4.336;2022-12-11T09:31:57;3.60;99.90
21487;DHT22;10905;50.822;4.336;2022-12-11T09:34:23;3.50;99.90
21487;DHT22;10905;50.822;4.336;2022-12-11T09:36:48;3.50;99.90
21487;DHT22;10905;50.822;4.336;2022-12-11T09:39:15;3.60;99.90
21487;DHT22;10905;50.822;4.336;2022-12-11T09:44:45;3.70;99.90
21487;DHT22;10905;50.822;4.336;2022-12-11T09:50:03;3.60;99.90
21487;DHT22;10905;50.822;4.336;2022-12-11T09:55:18;3.50;99.90
21487;DHT22;10905;50.822;4.336;2022-12-11T09:57:58;3.50;99.90
21487;DHT22;10905;50.822;4.336;2022-12-11T10:00:42;3.50;99.90
21487;DHT22;10905;50.822;4.336;2022-12-11T10:06:16;3.50;99.90
21487;DHT22;10905;50.822;4.336;2022-12-11T10:11:46;3.80;99.90
21487;DHT22;10905;50.822;4.336;2022-12-11T10:17:24;3.70;99.90
21487;DHT22;10905;50.822;4.336;2022-12-11T10:19:52;3.70;99.90
21487;DHT22;10905;50.822;4.336;2022-12-11T10:22:26;3.70;99.90
21487;DHT22;10905;50.822;4.336;2022-12-11T10:25:00;3.70;99.90
21487;DHT22;10905;50.822;4.336;2022-12-11T10:27:32;3.70;99.90
21487;DHT22;10905;50.822;4.336;2022-12-11T10:32:49;3.70;99.90
21487;DHT22;10905;50.822;4.336;2022-12-11T10:35:46;3.70;99.90
21487;DHT22;10905;50.822;4.336;2022-12-11T10:41:09;4.00;99.90
21487;DHT22;10905;50.822;4.336;2022-12-11T10:43:38;3.80;99.90
21487;DHT22;10905;50.822;4.336;2022-12-11T10:46:12;3.90;99.90
21487;DHT22;10905;50.822;4.336;2022-12-11T10:49:00;3.80;99.90
21487;DHT22;10905;50.822;4.336;2022-12-11T10:54:07;3.90;99.90
21487;DHT22;10905;50.822;4.336;2022-12-11T10:56:40;3.90;99.90
21487;DHT22;10905;50.822;4.336;2022-12-11T10:59:20;3.80;99.90
21487;DHT22;10905;50.822;4.336;2022-12-11T11:01:46;3.80;99.90
21487;DHT22;10905;50.822;4.336;2022-12-11T11:04:21;3.70;99.90
21487;DHT22;10905;50.822;4.336;2022-12-11T11:06:59;3.80;99.90
21487;DHT22;10905;50.822;4.336;2022-12-11T11:09:33;3.70;99.90
21487;DHT22;10905;50.822;4.336;2022-12-11T11:11:59;3.80;99.90
21487;DHT22;10905;50.822;4.336;2022-12-11T11:14:25;3.90;99.90
21487;DHT22;10905;50.822;4.336;2022-12-11T11:16:54;4.00;99.90
21487;DHT22;10905;50.822;4.336;2022-12-11T11:19:29;4.00;99.90
21487;DHT22;10905;50.822;4.336;2022-12-11T11:22:11;3.90;99.90
21487;DHT22;10905;50.822;4.336;2022-12-11T11:24:40;3.90;99.90
21487;DHT22;10905;50.822;4.336;2022-12-11T11:29:47;3.80;99.90
21487;DHT22;10905;50.822;4.336;2022-12-11T11:32:20;3.70;99.90
21487;DHT22;10905;50.822;4.336;2022-12-11T11:34:46;3.90;99.90
21487;DHT22;10905;50.822;4.336;2022-12-11T11:37:30;3.90;99.90
21487;DHT22;10905;50.822;4.336;2022-12-11T11:40:04;3.90;99.90
21487;DHT22;10905;50.822;4.336;2022-12-11T11:42:44;4.00;99.90
21487;DHT22;10905;50.822;4.336;2022-12-11T11:45:15;4.10;99.90
21487;DHT22;10905;50.822;4.336;2022-12-11T11:47:50;4.10;99.90
21487;DHT22;10905;50.822;4.336;2022-12-11T11:50:30;4.30;99.90
21487;DHT22;10905;50.822;4.336;2022-12-11T11:53:04;4.30;99.90
21487;DHT22;10905;50.822;4.336;2022-12-11T11:55:50;4.30;99.90
21487;DHT22;10905;50.822;4.336;2022-12-11T11:58:57;4.40;99.90
21487;DHT22;10905;50.822;4.336;2022-12-11T12:01:25;4.60;99.90
21487;DHT22;10905;50.822;4.336;2022-12-11T12:03:51;4.40;99.90
21487;DHT22;10905;50.822;4.336;2022-12-11T12:12:46;4.50;99.90
21487;DHT22;10905;50.822;4.336;2022-12-11T12:17:53;4.40;99.90
21487;DHT22;10905;50.822;4.336;2022-12-11T12:38:53;4.00;99.90
21487;DHT22;10905;50.822;4.336;2022-12-11T12:44:30;3.60;99.90
21487;DHT22;10905;50.822;4.336;2022-12-11T12:47:14;3.60;99.90
21487;DHT22;10905;50.822;4.336;2022-12-11T12:49:47;3.60;99.90
21487;DHT22;10905;50.822;4.336;2022-12-11T12:52:17;3.70;99.90
21487;DHT22;10905;50.822;4.336;2022-12-11T12:54:46;3.70;99.90
21487;DHT22;10905;50.822;4.336;2022-12-11T12:57:33;3.70;99.90
21487;DHT22;10905;50.822;4.336;2022-12-11T12:59:59;3.80;99.90
21487;DHT22;10905;50.822;4.336;2022-12-11T13:02:25;3.80;99.90
21487;DHT22;10905;50.822;4.336;2022-12-11T13:05:00;3.70;99.90
21487;DHT22;10905;50.822;4.336;2022-12-11T13:07:29;3.80;99.90
21487;DHT22;10905;50.822;4.336;2022-12-11T13:10:00;3.70;99.90
21487;DHT22;10905;50.822;4.336;2022-12-11T13:12:33;3.70;99.90
21487;DHT22;10905;50.822;4.336;2022-12-11T13:15:04;3.60;99.90
21487;DHT22;10905;50.822;4.336;2022-12-11T13:17:37;3.70;99.90
21487;DHT22;10905;50.822;4.336;2022-12-11T13:20:15;3.70;99.90
21487;DHT22;10905;50.822;4.336;2022-12-11T13:25:30;3.80;99.90
21487;DHT22;10905;50.822;4.336;2022-12-11T13:28:06;4.00;99.90
21487;DHT22;10905;50.822;4.336;2022-12-11T13:30:33;4.00;99.90
21487;DHT22;10905;50.822;4.336;2022-12-11T13:33:05;4.00;99.90
21487;DHT22;10905;50.822;4.336;2022-12-11T13:35:33;3.90;99.90
21487;DHT22;10905;50.822;4.336;2022-12-11T13:38:06;3.80;99.90
21487;DHT22;10905;50.822;4.336;2022-12-11T13:40:37;3.80;99.90
21487;DHT22;10905;50.822;4.336;2022-12-11T13:43:08;3.60;99.90
21487;DHT22;10905;50.822;4.336;2022-12-11T13:45:50;3.60;99.90
21487;DHT22;10905;50.822;4.336;2022-12-11T13:48:27;3.60;99.90
21487;DHT22;10905;50.822;4.336;2022-12-11T13:50:53;3.60;99.90
21487;DHT22;10905;50.822;4.336;2022-12-11T13:53:21;3.60;99.90
21487;DHT22;10905;50.822;4.336;2022-12-11T13:56:02;3.60;99.90
21487;DHT22;10905;50.822;4.336;2022-12-11T13:58:32;3.60;99.90
21487;DHT22;10905;50.822;4.336;2022-12-11T14:01:04;3.60;99.90
21487;DHT22;10905;50.822;4.336;2022-12-11T14:03:31;3.60;99.90
21487;DHT22;10905;50.822;4.336;2022-12-11T14:05:58;3.70;99.90
21487;DHT22;10905;50.822;4.336;2022-12-11T14:08:32;3.60;99.90
21487;DHT22;10905;50.822;4.336;2022-12-11T14:10:59;3.50;99.90
21487;DHT22;10905;50.822;4.336;2022-12-11T14:13:28;3.40;99.90
21487;DHT22;10905;50.822;4.336;2022-12-11T14:15:55;3.40;99.90
21487;DHT22;10905;50.822;4.336;2022-12-11T14:18:25;3.50;99.90
21487;DHT22;10905;50.822;4.336;2022-12-11T14:20:59;3.60;99.90
21487;DHT22;10905;50.822;4.336;2022-12-11T14:23:27;3.60;99.90
21487;DHT22;10905;50.822;4.336;2022-12-11T14:26:03;3.60;99.90
21487;DHT22;10905;50.822;4.336;2022-12-11T14:28:40;3.80;99.90
21487;DHT22;10905;50.822;4.336;2022-12-11T14:31:06;3.70;99.90
21487;DHT22;10905;50.822;4.336;2022-12-11T14:33:36;3.80;99.90
21487;DHT22;10905;50.822;4.336;2022-12-11T14:36:03;3.80;99.90
21487;DHT22;10905;50.822;4.336;2022-12-11T14:38:35;3.90;99.90
21487;DHT22;10905;50.822;4.336;2022-12-11T14:41:05;4.00;99.90
21487;DHT22;10905;50.822;4.336;2022-12-11T14:43:41;3.90;99.90
21487;DHT22;10905;50.822;4.336;2022-12-11T14:46:14;3.90;99.90
21487;DHT22;10905;50.822;4.336;2022-12-11T14:48:46;3.90;99.90
21487;DHT22;10905;50.822;4.336;2022-12-11T14:51:16;4.00;99.90
21487;DHT22;10905;50.822;4.336;2022-12-11T14:53:46;4.10;99.90
21487;DHT22;10905;50.822;4.336;2022-12-11T14:56:22;4.10;99.90
21487;DHT22;10905;50.822;4.336;2022-12-11T14:59:04;4.10;99.90
21487;DHT22;10905;50.822;4.336;2022-12-11T15:01:35;4.00;99.90
21487;DHT22;10905;50.822;4.336;2022-12-11T15:06:44;4.00;99.90
21487;DHT22;10905;50.822;4.336;2022-12-11T15:09:33;4.20;99.90
21487;DHT22;10905;50.822;4.336;2022-12-11T15:12:27;4.00;99.90
21487;DHT22;10905;50.822;4.336;2022-12-11T15:14:58;3.90;99.90
21487;DHT22;10905;50.822;4.336;2022-12-11T15:17:26;3.90;99.90
21487;DHT22;10905;50.822;4.336;2022-12-11T15:19:55;3.80;99.90
21487;DHT22;10905;50.822;4.336;2022-12-11T15:22:30;3.80;99.90
21487;DHT22;10905;50.822;4.336;2022-12-11T15:24:56;3.80;99.90
21487;DHT22;10905;50.822;4.336;2022-12-11T15:27:35;3.70;99.90
21487;DHT22;10905;50.822;4.336;2022-12-11T15:30:29;3.80;99.90
21487;DHT22;10905;50.822;4.336;2022-12-11T15:35:33;3.80;99.90
21487;DHT22;10905;50.822;4.336;2022-12-11T15:38:00;3.80;99.90
21487;DHT22;10905;50.822;4.336;2022-12-11T15:40:26;3.80;99.90
21487;DHT22;10905;50.822;4.336;2022-12-11T15:42:52;3.90;99.90
21487;DHT22;10905;50.822;4.336;2022-12-11T15:45:28;3.80;99.90
21487;DHT22;10905;50.822;4.336;2022-12-11T15:47:54;3.90;99.90
21487;DHT22;10905;50.822;4.336;2022-12-11T15:50:24;3.80;99.90
21487;DHT22;10905;50.822;4.336;2022-12-11T15:52:51;3.80;99.90
21487;DHT22;10905;50.822;4.336;2022-12-11T15:55:18;3.70;99.90
21487;DHT22;10905;50.822;4.336;2022-12-11T15:57:56;3.60;99.90
21487;DHT22;10905;50.822;4.336;2022-12-11T16:00:23;3.70;99.90
21487;DHT22;10905;50.822;4.336;2022-12-11T16:02:50;3.70;99.90
21487;DHT22;10905;50.822;4.336;2022-12-11T16:05:16;3.70;99.90
21487;DHT22;10905;50.822;4.336;2022-12-11T16:07:41;3.70;99.90
21487;DHT22;10905;50.822;4.336;2022-12-11T16:10:13;3.70;99.90
21487;DHT22;10905;50.822;4.336;2022-12-11T16:12:39;3.80;99.90
21487;DHT22;10905;50.822;4.336;2022-12-11T16:15:04;3.80;99.90
21487;DHT22;10905;50.822;4.336;2022-12-11T16:17:30;3.90;99.90
21487;DHT22;10905;50.822;4.336;2022-12-11T16:19:56;3.90;99.90
21487;DHT22;10905;50.822;4.336;2022-12-11T16:22:21;3.90;99.90
21487;DHT22;10905;50.822;4.336;2022-12-11T16:24:51;3.90;99.90
21487;DHT22;10905;50.822;4.336;2022-12-11T16:27:17;3.80;99.90
21487;DHT22;10905;50.822;4.336;2022-12-11T16:29:42;3.90;99.90
21487;DHT22;10905;50.822;4.336;2022-12-11T16:32:08;3.90;99.90
21487;DHT22;10905;50.822;4.336;2022-12-11T16:34:35;3.90;99.90
21487;DHT22;10905;50.822;4.336;2022-12-11T16:37:03;4.00;99.90
21487;DHT22;10905;50.822;4.336;2022-12-11T16:39:28;4.00;99.90
21487;DHT22;10905;50.822;4.336;2022-12-11T16:41:54;4.00;99.90
21487;DHT22;10905;50.822;4.336;2022-12-11T16:44:22;3.90;99.90
21487;DHT22;10905;50.822;4.336;2022-12-11T16:46:48;3.90;99.90
21487;DHT22;10905;50.822;4.336;2022-12-11T16:49:14;4.00;99.90
21487;DHT22;10905;50.822;4.336;2022-12-11T16:51:40;3.80;99.90
21487;DHT22;10905;50.822;4.336;2022-12-11T16:54:06;3.80;99.90
21487;DHT22;10905;50.822;4.336;2022-12-11T16:56:32;3.70;99.90
21487;DHT22;10905;50.822;4.336;2022-12-11T16:59:00;3.70;99.90
21487;DHT22;10905;50.822;4.336;2022-12-11T17:01:26;3.70;99.90
21487;DHT22;10905;50.822;4.336;2022-12-11T17:03:51;3.60;99.90
21487;DHT22;10905;50.822;4.336;2022-12-11T17:06:17;3.50;99.90
21487;DHT22;10905;50.822;4.336;2022-12-11T17:08:44;3.50;99.90
21487;DHT22;10905;50.822;4.336;2022-12-11T17:11:12;3.60;99.90
21487;DHT22;10905;50.822;4.336;2022-12-11T17:13:38;3.40;99.90
21487;DHT22;10905;50.822;4.336;2022-12-11T17:16:10;3.30;99.90
21487;DHT22;10905;50.822;4.336;2022-12-11T17:18:36;3.30;99.90
21487;DHT22;10905;50.822;4.336;2022-12-11T17:21:07;3.20;99.90
21487;DHT22;10905;50.822;4.336;2022-12-11T17:23:33;3.10;99.90
21487;DHT22;10905;50.822;4.336;2022-12-11T17:25:59;2.90;99.90
21487;DHT22;10905;50.822;4.336;2022-12-11T17:28:27;2.90;99.90
21487;DHT22;10905;50.822;4.336;2022-12-11T17:30:53;2.80;99.90
21487;DHT22;10905;50.822;4.336;2022-12-11T17:33:19;2.80;99.90